sensor_id;sensor_type;location;lat;lon;timestamp;temperature;humidity
48744;DHT22;34538;48.836;9.174;2023-03-21T00:02:24;10.10;99.90
48744;DHT22;34538;48.836;9.174;2023-03-21T00:04:50;10.00;99.90
48744;DHT22;34538;48.836;9.174;2023-03-21T00:07:17;10.00;99.90
48744;DHT22;34538;48.836;9.174;2023-03-21T00:09:44;10.00;99.90
48744;DHT22;34538;48.836;9.174;2023-03-21T00:12:11;10.00;99.90
48744;DHT22;34538;48.836;9.174;2023-03-21T00:14:38;10.00;99.90
48744;DHT22;34538;48.836;9.174;2023-03-21T00:17:07;9.90;99.90
48744;DHT22;34538;48.836;9.174;2023-03-21T00:19:35;9.90;99.90
48744;DHT22;34538;48.836;9.174;2023-03-21T00:22:03;9.90;99.90
48744;DHT22;34538;48.836;9.174;2023-03-21T00:24:30;9.90;99.90
48744;DHT22;34538;48.836;9.174;2023-03-21T00:26:57;9.90;99.90
48744;DHT22;34538;48.836;9.174;2023-03-21T00:29:24;9.90;99.90
48744;DHT22;34538;48.836;9.174;2023-03-21T00:31:51;9.90;99.90
48744;DHT22;34538;48.836;9.174;2023-03-21T00:34:19;9.90;99.90
48744;DHT22;34538;48.836;9.174;2023-03-21T00:36:46;9.90;99.90
48744;DHT22;34538;48.836;9.174;2023-03-21T00:39:13;9.90;99.90
48744;DHT22;34538;48.836;9.174;2023-03-21T00:41:40;9.80;99.90
48744;DHT22;34538;48.836;9.174;2023-03-21T00:44:07;9.80;99.90
48744;DHT22;34538;48.836;9.174;2023-03-21T00:46:34;9.80;99.90
48744;DHT22;34538;48.836;9.174;2023-03-21T00:49:01;9.80;99.90
48744;DHT22;34538;48.836;9.174;2023-03-21T00:51:29;9.80;99.90
48744;DHT22;34538;48.836;9.174;2023-03-21T00:53:57;9.80;99.90
48744;DHT22;34538;48.836;9.174;2023-03-21T00:56:26;9.80;99.90
48744;DHT22;34538;48.836;9.174;2023-03-21T00:58:53;9.80;99.90
48744;DHT22;34538;48.836;9.174;2023-03-21T01:01:20;9.80;99.90
48744;DHT22;34538;48.836;9.174;2023-03-21T01:03:47;9.80;99.90
48744;DHT22;34538;48.836;9.174;2023-03-21T01:06:30;9.80;99.90
48744;DHT22;34538;48.836;9.174;2023-03-21T01:08:57;9.80;99.90
48744;DHT22;34538;48.836;9.174;2023-03-21T01:11:27;9.80;99.90
48744;DHT22;34538;48.836;9.174;2023-03-21T01:13:54;9.80;99.90
48744;DHT22;34538;48.836;9.174;2023-03-21T01:16:22;9.80;99.90
48744;DHT22;34538;48.836;9.174;2023-03-21T01:18:50;9.70;99.90
48744;DHT22;34538;48.836;9.174;2023-03-21T01:21:17;9.70;99.90
48744;DHT22;34538;48.836;9.174;2023-03-21T01:23:45;9.70;99.90
48744;DHT22;34538;48.836;9.174;2023-03-21T01:26:13;9.70;99.90
48744;DHT22;34538;48.836;9.174;2023-03-21T01:28:43;9.70;99.90
48744;DHT22;34538;48.836;9.174;2023-03-21T01:31:11;9.70;99.90
48744;DHT22;34538;48.836;9.174;2023-03-21T01:33:39;9.70;99.90
48744;DHT22;34538;48.836;9.174;2023-03-21T01:36:07;9.60;99.90
48744;DHT22;34538;48.836;9.174;2023-03-21T01:38:34;9.60;99.90
48744;DHT22;34538;48.836;9.174;2023-03-21T01:41:02;9.60;99.90
48744;DHT22;34538;48.836;9.174;2023-03-21T01:43:35;9.60;99.90
48744;DHT22;34538;48.836;9.174;2023-03-21T01:49:27;9.60;99.90
48744;DHT22;34538;48.836;9.174;2023-03-21T01:52:09;9.60;99.90
48744;DHT22;34538;48.836;9.174;2023-03-21T01:54:38;9.60;99.90
48744;DHT22;34538;48.836;9.174;2023-03-21T01:57:11;9.60;99.90
48744;DHT22;34538;48.836;9.174;2023-03-21T01:59:41;9.60;99.90
48744;DHT22;34538;48.836;9.174;2023-03-21T02:02:33;9.60;99.90
48744;DHT22;34538;48.836;9.174;2023-03-21T02:05:22;9.60;99.90
48744;DHT22;34538;48.836;9.174;2023-03-21T02:07:51;9.60;99.90
48744;DHT22;34538;48.836;9.174;2023-03-21T02:10:18;9.60;99.90
48744;DHT22;34538;48.836;9.174;2023-03-21T02:12:50;9.60;99.90
48744;DHT22;34538;48.836;9.174;2023-03-21T02:15:19;9.50;99.90
48744;DHT22;34538;48.836;9.174;2023-03-21T02:18:07;9.50;99.90
48744;DHT22;34538;48.836;9.174;2023-03-21T02:21:10;9.50;99.90
48744;DHT22;34538;48.836;9.174;2023-03-21T02:27:07;9.50;99.90
48744;DHT22;34538;48.836;9.174;2023-03-21T02:30:08;9.50;99.90
48744;DHT22;34538;48.836;9.174;2023-03-21T02:32:55;9.50;99.90
48744;DHT22;34538;48.836;9.174;2023-03-21T02:35:49;9.50;99.90
48744;DHT22;34538;48.836;9.174;2023-03-21T02:38:24;9.40;99.90
48744;DHT22;34538;48.836;9.174;2023-03-21T02:41:02;9.40;99.90
48744;DHT22;34538;48.836;9.174;2023-03-21T02:43:34;9.40;99.90
48744;DHT22;34538;48.836;9.174;2023-03-21T02:46:07;9.40;99.90
48744;DHT22;34538;48.836;9.174;2023-03-21T02:48:38;9.40;99.90
48744;DHT22;34538;48.836;9.174;2023-03-21T02:51:11;9.40;99.90
48744;DHT22;34538;48.836;9.174;2023-03-21T02:53:48;9.40;99.90
48744;DHT22;34538;48.836;9.174;2023-03-21T02:56:16;9.30;99.90
48744;DHT22;34538;48.836;9.174;2023-03-21T02:58:51;9.40;99.90
48744;DHT22;34538;48.836;9.174;2023-03-21T03:01:21;9.30;99.90
48744;DHT22;34538;48.836;9.174;2023-03-21T03:03:51;9.30;99.90
48744;DHT22;34538;48.836;9.174;2023-03-21T03:06:20;9.30;99.90
48744;DHT22;34538;48.836;9.174;2023-03-21T03:09:11;9.30;99.90
48744;DHT22;34538;48.836;9.174;2023-03-21T03:11:42;9.30;99.90
48744;DHT22;34538;48.836;9.174;2023-03-21T03:14:23;9.30;99.90
48744;DHT22;34538;48.836;9.174;2023-03-21T03:17:01;9.30;99.90
48744;DHT22;34538;48.836;9.174;2023-03-21T03:19:32;9.20;99.90
48744;DHT22;34538;48.836;9.174;2023-03-21T03:22:05;9.20;99.90
48744;DHT22;34538;48.836;9.174;2023-03-21T03:24:40;9.20;99.90
48744;DHT22;34538;48.836;9.174;2023-03-21T03:27:11;9.20;99.90
48744;DHT22;34538;48.836;9.174;2023-03-21T03:29:41;9.20;99.90
48744;DHT22;34538;48.836;9.174;2023-03-21T03:32:14;9.20;99.90
48744;DHT22;34538;48.836;9.174;2023-03-21T03:34:45;9.20;99.90
48744;DHT22;34538;48.836;9.174;2023-03-21T03:37:20;9.10;99.90
48744;DHT22;34538;48.836;9.174;2023-03-21T03:39:57;9.10;99.90
48744;DHT22;34538;48.836;9.174;2023-03-21T03:42:29;9.10;99.90
48744;DHT22;34538;48.836;9.174;2023-03-21T03:45:06;9.10;99.90
48744;DHT22;34538;48.836;9.174;2023-03-21T03:47:37;9.10;99.90
48744;DHT22;34538;48.836;9.174;2023-03-21T03:50:09;9.10;99.90
48744;DHT22;34538;48.836;9.174;2023-03-21T03:52:43;9.10;99.90
48744;DHT22;34538;48.836;9.174;2023-03-21T03:55:15;9.10;99.90
48744;DHT22;34538;48.836;9.174;2023-03-21T03:57:45;9.00;99.90
48744;DHT22;34538;48.836;9.174;2023-03-21T04:00:14;9.00;99.90
48744;DHT22;34538;48.836;9.174;2023-03-21T04:02:46;9.00;99.90
48744;DHT22;34538;48.836;9.174;2023-03-21T04:05:17;9.00;99.90
48744;DHT22;34538;48.836;9.174;2023-03-21T04:07:45;9.00;99.90
48744;DHT22;34538;48.836;9.174;2023-03-21T04:10:15;9.00;99.90
48744;DHT22;34538;48.836;9.174;2023-03-21T04:12:42;9.00;99.90
48744;DHT22;34538;48.836;9.174;2023-03-21T04:15:18;9.00;99.90
48744;DHT22;34538;48.836;9.174;2023-03-21T04:17:49;9.00;99.90
48744;DHT22;34538;48.836;9.174;2023-03-21T04:20:16;9.00;99.90
48744;DHT22;34538;48.836;9.174;2023-03-21T04:22:43;9.00;99.90
48744;DHT22;34538;48.836;9.174;2023-03-21T04:25:10;8.90;99.90
48744;DHT22;34538;48.836;9.174;2023-03-21T04:27:39;8.90;99.90
48744;DHT22;34538;48.836;9.174;2023-03-21T04:30:26;8.80;99.90
48744;DHT22;34538;48.836;9.174;2023-03-21T04:33:03;8.80;99.90
48744;DHT22;34538;48.836;9.174;2023-03-21T04:35:32;8.70;99.90
48744;DHT22;34538;48.836;9.174;2023-03-21T04:38:01;8.70;99.90
48744;DHT22;34538;48.836;9.174;2023-03-21T04:40:28;8.70;99.90
48744;DHT22;34538;48.836;9.174;2023-03-21T04:42:56;8.60;99.90
48744;DHT22;34538;48.836;9.174;2023-03-21T04:45:26;8.50;99.90
48744;DHT22;34538;48.836;9.174;2023-03-21T04:47:53;8.50;99.90
48744;DHT22;34538;48.836;9.174;2023-03-21T04:50:21;8.50;99.90
48744;DHT22;34538;48.836;9.174;2023-03-21T04:52:48;8.40;99.90
48744;DHT22;34538;48.836;9.174;2023-03-21T04:55:15;8.40;99.90
48744;DHT22;34538;48.836;9.174;2023-03-21T04:57:44;8.30;99.90
48744;DHT22;34538;48.836;9.174;2023-03-21T05:00:14;8.20;99.90
48744;DHT22;34538;48.836;9.174;2023-03-21T05:02:42;8.20;99.90
48744;DHT22;34538;48.836;9.174;2023-03-21T05:05:09;8.10;99.90
48744;DHT22;34538;48.836;9.174;2023-03-21T05:07:37;8.10;99.90
48744;DHT22;34538;48.836;9.174;2023-03-21T05:10:05;8.10;99.90
48744;DHT22;34538;48.836;9.174;2023-03-21T05:12:32;8.10;99.90
48744;DHT22;34538;48.836;9.174;2023-03-21T05:14:59;8.10;99.90
48744;DHT22;34538;48.836;9.174;2023-03-21T05:17:28;8.20;99.90
48744;DHT22;34538;48.836;9.174;2023-03-21T05:19:56;8.20;99.90
48744;DHT22;34538;48.836;9.174;2023-03-21T05:22:24;8.20;99.90
48744;DHT22;34538;48.836;9.174;2023-03-21T05:24:54;8.20;99.90
48744;DHT22;34538;48.836;9.174;2023-03-21T05:27:50;8.20;99.90
48744;DHT22;34538;48.836;9.174;2023-03-21T05:30:22;8.20;99.90
48744;DHT22;34538;48.836;9.174;2023-03-21T05:32:56;8.20;99.90
48744;DHT22;34538;48.836;9.174;2023-03-21T05:35:23;8.20;99.90
48744;DHT22;34538;48.836;9.174;2023-03-21T05:37:50;8.10;99.90
48744;DHT22;34538;48.836;9.174;2023-03-21T05:40:19;8.20;99.90
48744;DHT22;34538;48.836;9.174;2023-03-21T05:42:47;8.20;99.90
48744;DHT22;34538;48.836;9.174;2023-03-21T05:45:19;8.20;99.90
48744;DHT22;34538;48.836;9.174;2023-03-21T05:47:48;8.20;99.90
48744;DHT22;34538;48.836;9.174;2023-03-21T05:50:17;8.20;99.90
48744;DHT22;34538;48.836;9.174;2023-03-21T05:52:53;8.20;99.90
48744;DHT22;34538;48.836;9.174;2023-03-21T05:55:20;8.30;99.90
48744;DHT22;34538;48.836;9.174;2023-03-21T05:57:47;8.30;99.90
48744;DHT22;34538;48.836;9.174;2023-03-21T06:00:23;8.30;99.90
48744;DHT22;34538;48.836;9.174;2023-03-21T06:03:08;8.40;99.90
48744;DHT22;34538;48.836;9.174;2023-03-21T06:05:56;8.50;99.90
48744;DHT22;34538;48.836;9.174;2023-03-21T06:08:28;8.50;99.90
48744;DHT22;34538;48.836;9.174;2023-03-21T06:10:55;8.50;99.90
48744;DHT22;34538;48.836;9.174;2023-03-21T06:13:22;8.60;99.90
48744;DHT22;34538;48.836;9.174;2023-03-21T06:15:49;8.60;99.90
48744;DHT22;34538;48.836;9.174;2023-03-21T06:18:19;8.60;99.90
48744;DHT22;34538;48.836;9.174;2023-03-21T06:20:56;8.70;99.90
48744;DHT22;34538;48.836;9.174;2023-03-21T06:23:23;8.70;99.90
48744;DHT22;34538;48.836;9.174;2023-03-21T06:25:50;8.70;99.90
48744;DHT22;34538;48.836;9.174;2023-03-21T06:28:17;8.70;99.90
48744;DHT22;34538;48.836;9.174;2023-03-21T06:30:44;8.70;99.90
48744;DHT22;34538;48.836;9.174;2023-03-21T06:33:23;8.80;99.90
48744;DHT22;34538;48.836;9.174;2023-03-21T06:35:51;8.80;99.90
48744;DHT22;34538;48.836;9.174;2023-03-21T06:38:20;8.80;99.90
48744;DHT22;34538;48.836;9.174;2023-03-21T06:40:48;8.80;99.90
48744;DHT22;34538;48.836;9.174;2023-03-21T06:43:15;8.80;99.90
48744;DHT22;34538;48.836;9.174;2023-03-21T06:45:43;8.80;99.90
48744;DHT22;34538;48.836;9.174;2023-03-21T06:48:10;8.80;99.90
48744;DHT22;34538;48.836;9.174;2023-03-21T06:50:56;8.80;99.90
48744;DHT22;34538;48.836;9.174;2023-03-21T06:53:27;8.90;99.90
48744;DHT22;34538;48.836;9.174;2023-03-21T06:56:14;9.00;99.90
48744;DHT22;34538;48.836;9.174;2023-03-21T06:58:42;9.00;99.90
48744;DHT22;34538;48.836;9.174;2023-03-21T07:01:17;9.10;99.90
48744;DHT22;34538;48.836;9.174;2023-03-21T07:03:53;9.10;99.90
48744;DHT22;34538;48.836;9.174;2023-03-21T07:06:22;9.20;99.90
48744;DHT22;34538;48.836;9.174;2023-03-21T07:08:53;9.30;99.90
48744;DHT22;34538;48.836;9.174;2023-03-21T07:11:22;9.40;99.90
48744;DHT22;34538;48.836;9.174;2023-03-21T07:13:49;9.50;99.90
48744;DHT22;34538;48.836;9.174;2023-03-21T07:16:17;9.60;99.90
48744;DHT22;34538;48.836;9.174;2023-03-21T07:18:46;9.70;99.90
48744;DHT22;34538;48.836;9.174;2023-03-21T07:21:13;9.80;99.90
48744;DHT22;34538;48.836;9.174;2023-03-21T07:23:41;9.90;99.90
48744;DHT22;34538;48.836;9.174;2023-03-21T07:26:09;10.00;99.90
48744;DHT22;34538;48.836;9.174;2023-03-21T07:28:37;10.10;99.90
48744;DHT22;34538;48.836;9.174;2023-03-21T07:31:05;10.10;99.90
48744;DHT22;34538;48.836;9.174;2023-03-21T07:33:33;10.20;99.90
48744;DHT22;34538;48.836;9.174;2023-03-21T07:36:01;10.30;99.90
48744;DHT22;34538;48.836;9.174;2023-03-21T07:38:29;10.30;99.90
48744;DHT22;34538;48.836;9.174;2023-03-21T07:40:58;10.40;99.90
48744;DHT22;34538;48.836;9.174;2023-03-21T07:43:30;10.50;99.90
48744;DHT22;34538;48.836;9.174;2023-03-21T07:45:58;10.60;99.90
48744;DHT22;34538;48.836;9.174;2023-03-21T07:48:26;10.70;99.90
48744;DHT22;34538;48.836;9.174;2023-03-21T07:50:52;10.80;99.90
48744;DHT22;34538;48.836;9.174;2023-03-21T07:53:19;10.90;99.90
48744;DHT22;34538;48.836;9.174;2023-03-21T07:55:49;10.90;99.90
48744;DHT22;34538;48.836;9.174;2023-03-21T07:58:16;11.00;99.90
48744;DHT22;34538;48.836;9.174;2023-03-21T08:00:44;11.10;99.90
48744;DHT22;34538;48.836;9.174;2023-03-21T08:03:11;11.10;99.90
48744;DHT22;34538;48.836;9.174;2023-03-21T08:05:38;11.20;99.90
48744;DHT22;34538;48.836;9.174;2023-03-21T08:08:06;11.20;99.90
48744;DHT22;34538;48.836;9.174;2023-03-21T08:10:33;11.30;99.90
48744;DHT22;34538;48.836;9.174;2023-03-21T08:13:00;11.40;99.90
48744;DHT22;34538;48.836;9.174;2023-03-21T08:15:27;11.40;99.90
48744;DHT22;34538;48.836;9.174;2023-03-21T08:17:57;11.50;99.90
48744;DHT22;34538;48.836;9.174;2023-03-21T08:20:25;11.60;99.90
48744;DHT22;34538;48.836;9.174;2023-03-21T08:22:52;11.60;99.90
48744;DHT22;34538;48.836;9.174;2023-03-21T08:25:21;11.70;99.90
48744;DHT22;34538;48.836;9.174;2023-03-21T08:27:49;11.70;99.90
48744;DHT22;34538;48.836;9.174;2023-03-21T08:30:18;11.80;99.90
48744;DHT22;34538;48.836;9.174;2023-03-21T08:32:46;11.90;99.90
48744;DHT22;34538;48.836;9.174;2023-03-21T08:35:16;12.00;99.90
48744;DHT22;34538;48.836;9.174;2023-03-21T08:37:44;12.10;99.90
48744;DHT22;34538;48.836;9.174;2023-03-21T08:40:13;12.10;99.90
48744;DHT22;34538;48.836;9.174;2023-03-21T08:42:41;12.20;99.90
48744;DHT22;34538;48.836;9.174;2023-03-21T08:45:11;12.30;99.90
48744;DHT22;34538;48.836;9.174;2023-03-21T08:47:39;12.30;99.90
48744;DHT22;34538;48.836;9.174;2023-03-21T08:50:14;12.40;99.90
48744;DHT22;34538;48.836;9.174;2023-03-21T08:52:43;12.40;99.90
48744;DHT22;34538;48.836;9.174;2023-03-21T08:55:10;12.50;99.90
48744;DHT22;34538;48.836;9.174;2023-03-21T08:57:37;12.50;99.90
48744;DHT22;34538;48.836;9.174;2023-03-21T09:00:06;12.60;99.90
48744;DHT22;34538;48.836;9.174;2023-03-21T09:02:37;12.70;99.90
48744;DHT22;34538;48.836;9.174;2023-03-21T09:05:04;12.80;99.90
48744;DHT22;34538;48.836;9.174;2023-03-21T09:07:32;12.90;99.90
48744;DHT22;34538;48.836;9.174;2023-03-21T09:10:02;12.90;99.90
48744;DHT22;34538;48.836;9.174;2023-03-21T09:12:29;13.00;99.90
48744;DHT22;34538;48.836;9.174;2023-03-21T09:14:56;13.10;99.90
48744;DHT22;34538;48.836;9.174;2023-03-21T09:17:23;13.10;99.90
48744;DHT22;34538;48.836;9.174;2023-03-21T09:19:50;13.20;99.90
48744;DHT22;34538;48.836;9.174;2023-03-21T09:22:17;13.20;99.90
48744;DHT22;34538;48.836;9.174;2023-03-21T09:24:48;13.30;99.90
48744;DHT22;34538;48.836;9.174;2023-03-21T09:27:16;13.40;99.90
48744;DHT22;34538;48.836;9.174;2023-03-21T09:29:45;13.40;99.90
48744;DHT22;34538;48.836;9.174;2023-03-21T09:32:12;13.50;99.90
48744;DHT22;34538;48.836;9.174;2023-03-21T09:34:39;13.60;99.90
48744;DHT22;34538;48.836;9.174;2023-03-21T09:37:07;13.70;99.90
48744;DHT22;34538;48.836;9.174;2023-03-21T09:39:38;13.70;99.90
48744;DHT22;34538;48.836;9.174;2023-03-21T09:42:17;13.80;99.90
48744;DHT22;34538;48.836;9.174;2023-03-21T09:44:56;13.90;99.90
48744;DHT22;34538;48.836;9.174;2023-03-21T09:47:27;14.10;99.90
48744;DHT22;34538;48.836;9.174;2023-03-21T09:50:00;14.20;99.90
48744;DHT22;34538;48.836;9.174;2023-03-21T09:52:31;14.30;99.90
48744;DHT22;34538;48.836;9.174;2023-03-21T09:54:59;14.50;99.90
48744;DHT22;34538;48.836;9.174;2023-03-21T09:57:30;14.60;99.90
48744;DHT22;34538;48.836;9.174;2023-03-21T10:00:02;14.70;99.90
48744;DHT22;34538;48.836;9.174;2023-03-21T10:02:39;14.70;99.90
48744;DHT22;34538;48.836;9.174;2023-03-21T10:05:16;14.80;99.90
48744;DHT22;34538;48.836;9.174;2023-03-21T10:07:49;14.80;99.90
48744;DHT22;34538;48.836;9.174;2023-03-21T10:10:19;14.80;99.90
48744;DHT22;34538;48.836;9.174;2023-03-21T10:12:49;14.90;99.90
48744;DHT22;34538;48.836;9.174;2023-03-21T10:15:20;15.00;99.90
48744;DHT22;34538;48.836;9.174;2023-03-21T10:17:53;15.10;99.90
48744;DHT22;34538;48.836;9.174;2023-03-21T10:20:22;15.10;99.50
48744;DHT22;34538;48.836;9.174;2023-03-21T10:22:51;15.10;99.90
48744;DHT22;34538;48.836;9.174;2023-03-21T10:25:21;15.10;99.90
48744;DHT22;34538;48.836;9.174;2023-03-21T10:27:51;15.30;99.90
48744;DHT22;34538;48.836;9.174;2023-03-21T10:30:26;15.30;99.60
48744;DHT22;34538;48.836;9.174;2023-03-21T10:32:55;15.40;99.50
48744;DHT22;34538;48.836;9.174;2023-03-21T10:35:23;15.50;99.50
48744;DHT22;34538;48.836;9.174;2023-03-21T10:37:50;15.60;98.80
48744;DHT22;34538;48.836;9.174;2023-03-21T10:40:18;15.60;99.00
48744;DHT22;34538;48.836;9.174;2023-03-21T10:42:45;15.60;99.30
48744;DHT22;34538;48.836;9.174;2023-03-21T10:45:18;15.70;99.00
48744;DHT22;34538;48.836;9.174;2023-03-21T10:47:47;15.80;99.50
48744;DHT22;34538;48.836;9.174;2023-03-21T10:50:17;15.90;98.70
48744;DHT22;34538;48.836;9.174;2023-03-21T10:52:52;16.00;98.30
48744;DHT22;34538;48.836;9.174;2023-03-21T10:55:26;16.00;98.50
48744;DHT22;34538;48.836;9.174;2023-03-21T10:57:56;16.10;97.90
48744;DHT22;34538;48.836;9.174;2023-03-21T11:00:28;16.10;98.70
48744;DHT22;34538;48.836;9.174;2023-03-21T11:02:56;16.20;97.50
48744;DHT22;34538;48.836;9.174;2023-03-21T11:05:26;16.20;98.60
48744;DHT22;34538;48.836;9.174;2023-03-21T11:08:00;16.30;98.50
48744;DHT22;34538;48.836;9.174;2023-03-21T11:10:29;16.30;99.00
48744;DHT22;34538;48.836;9.174;2023-03-21T11:13:01;16.20;98.80
48744;DHT22;34538;48.836;9.174;2023-03-21T11:15:32;16.10;99.10
48744;DHT22;34538;48.836;9.174;2023-03-21T11:18:13;16.00;99.20
48744;DHT22;34538;48.836;9.174;2023-03-21T11:20:46;16.00;99.50
48744;DHT22;34538;48.836;9.174;2023-03-21T11:23:14;16.00;99.60
48744;DHT22;34538;48.836;9.174;2023-03-21T11:25:41;16.10;99.30
48744;DHT22;34538;48.836;9.174;2023-03-21T11:28:12;16.00;99.90
48744;DHT22;34538;48.836;9.174;2023-03-21T11:30:50;16.10;99.20
48744;DHT22;34538;48.836;9.174;2023-03-21T11:33:19;16.10;99.70
48744;DHT22;34538;48.836;9.174;2023-03-21T11:35:58;16.10;99.90
48744;DHT22;34538;48.836;9.174;2023-03-21T11:38:29;16.00;99.00
48744;DHT22;34538;48.836;9.174;2023-03-21T11:40:59;16.00;99.30
48744;DHT22;34538;48.836;9.174;2023-03-21T11:43:29;16.00;99.10
48744;DHT22;34538;48.836;9.174;2023-03-21T11:45:59;16.00;98.60
48744;DHT22;34538;48.836;9.174;2023-03-21T11:48:27;15.90;98.90
48744;DHT22;34538;48.836;9.174;2023-03-21T11:50:59;15.90;99.30
48744;DHT22;34538;48.836;9.174;2023-03-21T11:53:34;15.80;99.80
48744;DHT22;34538;48.836;9.174;2023-03-21T11:56:19;15.90;99.30
48744;DHT22;34538;48.836;9.174;2023-03-21T11:59:05;15.90;99.40
48744;DHT22;34538;48.836;9.174;2023-03-21T12:01:39;15.90;98.60
48744;DHT22;34538;48.836;9.174;2023-03-21T12:04:24;15.90;99.20
48744;DHT22;34538;48.836;9.174;2023-03-21T12:07:01;15.80;99.80
48744;DHT22;34538;48.836;9.174;2023-03-21T12:09:36;15.90;99.40
48744;DHT22;34538;48.836;9.174;2023-03-21T12:12:15;15.90;99.90
48744;DHT22;34538;48.836;9.174;2023-03-21T12:14:51;15.90;99.40
48744;DHT22;34538;48.836;9.174;2023-03-21T12:17:32;16.00;99.50
48744;DHT22;34538;48.836;9.174;2023-03-21T12:20:20;15.90;99.10
48744;DHT22;34538;48.836;9.174;2023-03-21T12:22:59;15.90;99.80
48744;DHT22;34538;48.836;9.174;2023-03-21T12:25:31;15.90;98.40
48744;DHT22;34538;48.836;9.174;2023-03-21T12:28:08;16.00;98.80
48744;DHT22;34538;48.836;9.174;2023-03-21T12:30:44;16.00;99.90
48744;DHT22;34538;48.836;9.174;2023-03-21T12:33:35;16.10;99.70
48744;DHT22;34538;48.836;9.174;2023-03-21T12:36:16;16.00;97.80
48744;DHT22;34538;48.836;9.174;2023-03-21T12:38:53;16.00;98.00
48744;DHT22;34538;48.836;9.174;2023-03-21T12:41:23;16.00;97.90
48744;DHT22;34538;48.836;9.174;2023-03-21T12:43:55;16.00;98.30
48744;DHT22;34538;48.836;9.174;2023-03-21T12:46:28;16.00;98.70
48744;DHT22;34538;48.836;9.174;2023-03-21T12:49:01;16.00;98.40
48744;DHT22;34538;48.836;9.174;2023-03-21T12:51:30;16.10;98.70
48744;DHT22;34538;48.836;9.174;2023-03-21T12:54:13;16.10;98.10
48744;DHT22;34538;48.836;9.174;2023-03-21T12:56:46;16.10;98.80
48744;DHT22;34538;48.836;9.174;2023-03-21T12:59:25;16.10;97.90
48744;DHT22;34538;48.836;9.174;2023-03-21T13:01:57;16.20;98.10
48744;DHT22;34538;48.836;9.174;2023-03-21T13:04:30;16.10;98.00
48744;DHT22;34538;48.836;9.174;2023-03-21T13:07:00;16.20;98.10
48744;DHT22;34538;48.836;9.174;2023-03-21T13:09:32;16.30;98.10
48744;DHT22;34538;48.836;9.174;2023-03-21T13:12:04;16.40;98.30
48744;DHT22;34538;48.836;9.174;2023-03-21T13:14:36;16.40;98.20
48744;DHT22;34538;48.836;9.174;2023-03-21T13:17:09;16.60;97.50
48744;DHT22;34538;48.836;9.174;2023-03-21T13:19:46;16.60;97.40
48744;DHT22;34538;48.836;9.174;2023-03-21T13:22:20;16.50;96.60
48744;DHT22;34538;48.836;9.174;2023-03-21T13:24:55;16.50;98.20
48744;DHT22;34538;48.836;9.174;2023-03-21T13:27:27;16.50;97.60
48744;DHT22;34538;48.836;9.174;2023-03-21T13:29:58;16.60;97.20
48744;DHT22;34538;48.836;9.174;2023-03-21T13:32:29;16.50;96.50
48744;DHT22;34538;48.836;9.174;2023-03-21T13:34:59;16.50;96.60
48744;DHT22;34538;48.836;9.174;2023-03-21T13:37:31;16.50;96.90
48744;DHT22;34538;48.836;9.174;2023-03-21T13:40:00;16.50;96.80
48744;DHT22;34538;48.836;9.174;2023-03-21T13:42:34;16.50;97.00
48744;DHT22;34538;48.836;9.174;2023-03-21T13:45:05;16.50;96.70
48744;DHT22;34538;48.836;9.174;2023-03-21T13:47:40;16.40;96.30
48744;DHT22;34538;48.836;9.174;2023-03-21T13:50:32;16.20;96.70
48744;DHT22;34538;48.836;9.174;2023-03-21T13:53:23;16.20;96.90
48744;DHT22;34538;48.836;9.174;2023-03-21T13:56:06;16.10;97.00
48744;DHT22;34538;48.836;9.174;2023-03-21T13:58:36;16.10;97.10
48744;DHT22;34538;48.836;9.174;2023-03-21T14:01:21;16.10;96.80
48744;DHT22;34538;48.836;9.174;2023-03-21T14:03:58;16.00;97.20
48744;DHT22;34538;48.836;9.174;2023-03-21T14:06:33;16.00;97.00
48744;DHT22;34538;48.836;9.174;2023-03-21T14:09:01;15.90;97.20
48744;DHT22;34538;48.836;9.174;2023-03-21T14:11:31;15.90;97.60
48744;DHT22;34538;48.836;9.174;2023-03-21T14:14:00;16.00;97.80
48744;DHT22;34538;48.836;9.174;2023-03-21T14:16:28;16.00;97.50
48744;DHT22;34538;48.836;9.174;2023-03-21T14:18:59;16.00;97.60
48744;DHT22;34538;48.836;9.174;2023-03-21T14:21:29;16.10;97.70
48744;DHT22;34538;48.836;9.174;2023-03-21T14:24:00;16.00;97.20
48744;DHT22;34538;48.836;9.174;2023-03-21T14:26:30;16.10;97.60
48744;DHT22;34538;48.836;9.174;2023-03-21T14:28:57;16.10;97.40
48744;DHT22;34538;48.836;9.174;2023-03-21T14:31:25;16.10;97.60
48744;DHT22;34538;48.836;9.174;2023-03-21T14:33:55;16.10;97.50
48744;DHT22;34538;48.836;9.174;2023-03-21T14:36:24;16.10;97.80
48744;DHT22;34538;48.836;9.174;2023-03-21T14:39:01;16.10;97.50
48744;DHT22;34538;48.836;9.174;2023-03-21T14:41:30;16.10;96.90
48744;DHT22;34538;48.836;9.174;2023-03-21T14:44:01;16.10;97.00
48744;DHT22;34538;48.836;9.174;2023-03-21T14:46:28;16.10;97.10
48744;DHT22;34538;48.836;9.174;2023-03-21T14:49:09;16.10;97.30
48744;DHT22;34538;48.836;9.174;2023-03-21T14:51:36;16.20;97.80
48744;DHT22;34538;48.836;9.174;2023-03-21T14:54:05;16.20;98.30
48744;DHT22;34538;48.836;9.174;2023-03-21T14:56:38;16.30;97.40
48744;DHT22;34538;48.836;9.174;2023-03-21T14:59:05;16.30;98.10
48744;DHT22;34538;48.836;9.174;2023-03-21T15:01:33;16.30;97.40
48744;DHT22;34538;48.836;9.174;2023-03-21T15:04:04;16.30;98.10
48744;DHT22;34538;48.836;9.174;2023-03-21T15:06:31;16.20;98.70
48744;DHT22;34538;48.836;9.174;2023-03-21T15:09:02;16.10;98.50
48744;DHT22;34538;48.836;9.174;2023-03-21T15:11:32;15.90;98.30
48744;DHT22;34538;48.836;9.174;2023-03-21T15:14:02;15.80;98.60
48744;DHT22;34538;48.836;9.174;2023-03-21T15:16:31;15.80;98.90
48744;DHT22;34538;48.836;9.174;2023-03-21T15:18:58;15.70;99.30
48744;DHT22;34538;48.836;9.174;2023-03-21T15:21:28;15.60;99.50
48744;DHT22;34538;48.836;9.174;2023-03-21T15:23:58;15.60;99.50
48744;DHT22;34538;48.836;9.174;2023-03-21T15:26:30;15.60;99.60
48744;DHT22;34538;48.836;9.174;2023-03-21T15:28:58;15.50;99.90
48744;DHT22;34538;48.836;9.174;2023-03-21T15:31:29;15.50;99.90
48744;DHT22;34538;48.836;9.174;2023-03-21T15:33:56;15.50;99.90
48744;DHT22;34538;48.836;9.174;2023-03-21T15:36:26;15.40;99.90
48744;DHT22;34538;48.836;9.174;2023-03-21T15:38:54;15.40;99.90
48744;DHT22;34538;48.836;9.174;2023-03-21T15:41:26;15.40;99.90
48744;DHT22;34538;48.836;9.174;2023-03-21T15:44:03;15.40;99.90
48744;DHT22;34538;48.836;9.174;2023-03-21T15:46:37;15.40;99.90
48744;DHT22;34538;48.836;9.174;2023-03-21T15:49:09;15.40;99.90
48744;DHT22;34538;48.836;9.174;2023-03-21T15:51:36;15.30;99.90
48744;DHT22;34538;48.836;9.174;2023-03-21T15:54:03;15.30;99.90
48744;DHT22;34538;48.836;9.174;2023-03-21T15:56:32;15.20;99.90
48744;DHT22;34538;48.836;9.174;2023-03-21T15:59:03;15.10;99.90
48744;DHT22;34538;48.836;9.174;2023-03-21T16:01:32;15.00;99.90
48744;DHT22;34538;48.836;9.174;2023-03-21T16:04:07;15.00;99.90
48744;DHT22;34538;48.836;9.174;2023-03-21T16:06:35;14.90;99.90
48744;DHT22;34538;48.836;9.174;2023-03-21T16:09:08;14.90;99.90
48744;DHT22;34538;48.836;9.174;2023-03-21T16:11:38;14.90;99.90